Time;durP1;ratioP1;P1;durP2;ratioP2;P2;SDS_P1;SDS_P2;PMS_P1;PMS_P2;Temp;Humidity;BMP_temperature;BMP_pressure;BME280_temperature;BME280_humidity;BME280_pressure;Samples;Min_cycle;Max_cycle;Signal;HPM_P1;HPM_P2
2021/09/15 00:01:38;;;;;;;;;;;;;;;17.37;100.00;98815.59;5069541;28;19924;-84
2021/09/15 00:04:05;;;;;;;;;;;;;;;17.45;100.00;98816.84;5054153;28;20018;-84
2021/09/15 00:06:32;;;;;;;;;;;;;;;17.47;100.00;98827.69;5068017;28;19931;-84
2021/09/15 00:08:59;;;;;;;;;;;;;;;17.51;100.00;98816.97;5037770;28;20023;-84
2021/09/15 00:11:28;;;;;;;;;;;;;;;17.47;100.00;98816.38;5038201;28;19970;-84
2021/09/15 00:13:55;;;;;;;;;;;;;;;17.50;100.00;98815.44;5058318;28;19978;-84
2021/09/15 00:16:22;;;;;;;;;;;;;;;17.39;100.00;98809.47;5063697;28;19925;-84
2021/09/15 00:18:49;;;;;;;;;;;;;;;17.49;100.00;98799.75;5053785;28;20303;-84
2021/09/15 00:21:16;;;;;;;;;;;;;;;17.44;100.00;98806.03;5037589;28;20438;-84
2021/09/15 00:23:43;;;;;;;;;;;;;;;17.39;100.00;98804.59;5037184;28;19924;-84
2021/09/15 00:26:10;;;;;;;;;;;;;;;17.37;100.00;98807.13;5070641;28;20292;-84
2021/09/15 00:28:37;;;;;;;;;;;;;;;17.40;100.00;98800.50;5037303;28;19932;-84
2021/09/15 00:31:04;;;;;;;;;;;;;;;17.25;100.00;98805.25;5037003;28;19929;-84
2021/09/15 00:33:31;;;;;;;;;;;;;;;17.17;100.00;98809.69;5036986;28;19929;-84
2021/09/15 00:35:58;;;;;;;;;;;;;;;17.03;100.00;98810.34;5054597;28;19929;-84
2021/09/15 00:38:25;;;;;;;;;;;;;;;16.90;100.00;98812.56;5037260;28;19929;-84
2021/09/15 00:40:54;;;;;;;;;;;;;;;17.18;100.00;98813.28;5068896;28;20062;-84
2021/09/15 00:43:22;;;;;;;;;;;;;;;17.18;100.00;98821.75;5090299;28;20015;-85
2021/09/15 00:45:50;;;;;;;;;;;;;;;17.17;100.00;98818.16;5058258;28;19931;-85
2021/09/15 00:48:17;;;;;;;;;;;;;;;17.30;100.00;98813.09;5039904;28;19963;-84
2021/09/15 00:50:44;;;;;;;;;;;;;;;17.32;100.00;98826.75;5047075;28;20015;-84
2021/09/15 00:53:12;;;;;;;;;;;;;;;17.17;100.00;98825.84;5053125;28;20020;-84
2021/09/15 00:55:40;;;;;;;;;;;;;;;17.25;100.00;98832.75;5036671;28;19970;-84
2021/09/15 00:58:08;;;;;;;;;;;;;;;17.38;100.00;98824.84;5054580;28;19925;-84
2021/09/15 01:00:37;;;;;;;;;;;;;;;17.41;100.00;98832.38;5054713;28;20024;-84
2021/09/15 01:03:06;;;;;;;;;;;;;;;17.44;100.00;98823.78;5066067;28;20390;-84
2021/09/15 01:05:35;;;;;;;;;;;;;;;17.42;100.00;98816.97;5089555;28;19924;-84
2021/09/15 01:08:04;;;;;;;;;;;;;;;17.37;100.00;98820.47;5089668;28;19956;-84
2021/09/15 01:10:31;;;;;;;;;;;;;;;17.22;100.00;98813.94;5037853;28;19929;-84
2021/09/15 01:13:07;;;;;;;;;;;;;;;16.72;100.00;98812.56;5053104;28;20019;-84
2021/09/15 01:15:58;;;;;;;;;;;;;;;16.73;100.00;98808.50;5022552;28;20395;-84
2021/09/15 01:18:44;;;;;;;;;;;;;;;17.16;100.00;98813.00;5054033;28;19925;-84
2021/09/15 01:21:27;;;;;;;;;;;;;;;17.36;100.00;98810.41;5053096;28;19931;-84
2021/09/15 01:24:09;;;;;;;;;;;;;;;17.39;100.00;98806.63;5053013;28;20011;-84
2021/09/15 01:27:09;;;;;;;;;;;;;;;17.44;100.00;98806.03;5054090;28;20399;-84
2021/09/15 01:30:05;;;;;;;;;;;;;;;17.53;100.00;98808.81;5057414;28;19932;-84
2021/09/15 01:32:33;;;;;;;;;;;;;;;17.50;100.00;98809.78;5056361;28;19932;-84
2021/09/15 01:35:00;;;;;;;;;;;;;;;17.43;100.00;98810.88;5078878;28;20444;-84
2021/09/15 01:37:32;;;;;;;;;;;;;;;17.56;100.00;98813.53;5053094;28;19928;-85
2021/09/15 01:40:00;;;;;;;;;;;;;;;17.56;100.00;98805.84;5046886;28;19970;-85
2021/09/15 01:42:34;;;;;;;;;;;;;;;17.55;100.00;98800.66;5087724;28;20010;-84
2021/09/15 01:45:04;;;;;;;;;;;;;;;17.58;100.00;98805.38;5015847;28;19925;-84
2021/09/15 01:47:32;;;;;;;;;;;;;;;17.35;100.00;98798.34;5047735;28;19929;-84
2021/09/15 01:49:59;;;;;;;;;;;;;;;17.31;100.00;98809.00;5035807;28;19925;-84
2021/09/15 01:52:27;;;;;;;;;;;;;;;17.44;100.00;98800.38;5052304;28;20007;-84
2021/09/15 01:54:57;;;;;;;;;;;;;;;17.49;100.00;98808.22;5051354;28;20015;-84
2021/09/15 01:57:24;;;;;;;;;;;;;;;17.43;100.00;98805.25;5036081;28;19924;-84
2021/09/15 02:00:11;;;;;;;;;;;;;;;17.42;100.00;98802.88;5052802;28;19925;-83
2021/09/15 02:02:46;;;;;;;;;;;;;;;17.41;100.00;98801.31;5053485;28;20384;-84
2021/09/15 02:05:25;;;;;;;;;;;;;;;17.29;100.00;98796.63;5069030;28;19970;-84
2021/09/15 02:08:15;;;;;;;;;;;;;;;17.06;100.00;98808.59;5019376;28;19925;-84
2021/09/15 02:10:57;;;;;;;;;;;;;;;16.95;100.00;98808.34;5052529;28;19924;-84
2021/09/15 02:13:26;;;;;;;;;;;;;;;16.54;100.00;98806.16;5051920;28;20002;-84
2021/09/15 02:15:53;;;;;;;;;;;;;;;16.41;100.00;98809.09;5055278;28;19925;-83
2021/09/15 02:18:20;;;;;;;;;;;;;;;16.28;100.00;98812.03;5039694;28;19925;-83
2021/09/15 02:21:17;;;;;;;;;;;;;;;16.32;100.00;98803.44;5047828;28;19931;-84
2021/09/15 02:24:22;;;;;;;;;;;;;;;16.27;100.00;98810.47;5041148;28;19936;-84
2021/09/15 02:27:08;;;;;;;;;;;;;;;16.13;100.00;98813.91;5022961;28;20369;-84
2021/09/15 02:29:35;;;;;;;;;;;;;;;15.74;100.00;98820.38;5089248;28;19931;-84
2021/09/15 02:32:27;;;;;;;;;;;;;;;15.73;100.00;98827.25;5040005;28;19939;-83
2021/09/15 02:35:13;;;;;;;;;;;;;;;15.64;100.00;98823.59;5041817;28;19939;-84
2021/09/15 02:38:14;;;;;;;;;;;;;;;15.96;100.00;98818.22;5027049;28;20006;-84
2021/09/15 02:41:11;;;;;;;;;;;;;;;16.19;100.00;98822.53;5055987;28;19989;-84
2021/09/15 02:43:53;;;;;;;;;;;;;;;16.13;100.00;98830.81;5038998;28;20019;-83
2021/09/15 02:46:55;;;;;;;;;;;;;;;16.17;100.00;98828.63;4998740;28;19993;-84
2021/09/15 02:49:52;;;;;;;;;;;;;;;16.40;100.00;98834.94;4998428;28;19929;-84
2021/09/15 02:52:35;;;;;;;;;;;;;;;16.42;100.00;98832.44;4983288;28;20008;-83
2021/09/15 02:55:46;;;;;;;;;;;;;;;16.40;100.00;98829.28;4991682;28;19926;-84
2021/09/15 02:58:32;;;;;;;;;;;;;;;16.38;100.00;98826.16;5000419;28;19926;-84
2021/09/15 03:01:14;;;;;;;;;;;;;;;16.73;100.00;98825.44;4965679;28;20064;-84
2021/09/15 03:04:04;;;;;;;;;;;;;;;16.90;100.00;98811.78;5014736;28;19925;-84
2021/09/15 03:06:51;;;;;;;;;;;;;;;16.74;100.00;98814.91;5003600;28;19980;-83
2021/09/15 03:09:28;;;;;;;;;;;;;;;16.81;100.00;98808.97;4998534;28;20009;-84
2021/09/15 03:11:55;;;;;;;;;;;;;;;16.96;100.00;98801.41;5014597;28;20285;-83
2021/09/15 03:14:22;;;;;;;;;;;;;;;16.59;100.00;98808.31;4998253;28;20027;-84
2021/09/15 03:16:50;;;;;;;;;;;;;;;16.90;100.00;98800.50;4998670;28;20340;-84
2021/09/15 03:19:17;;;;;;;;;;;;;;;17.03;100.00;98803.91;4998314;28;19926;-84
2021/09/15 03:21:44;;;;;;;;;;;;;;;17.07;100.00;98804.53;5014694;28;19928;-84
2021/09/15 03:24:13;;;;;;;;;;;;;;;16.96;100.00;98799.38;5038515;28;20360;-84
2021/09/15 03:26:43;;;;;;;;;;;;;;;17.04;100.00;98805.50;5054288;28;20019;-83
2021/09/15 03:29:11;;;;;;;;;;;;;;;17.10;100.00;98795.13;5038283;28;20012;-84
2021/09/15 03:31:38;;;;;;;;;;;;;;;16.98;100.00;98801.75;5071451;28;19958;-83
2021/09/15 03:34:05;;;;;;;;;;;;;;;16.97;100.00;98805.78;5088363;28;19948;-84
2021/09/15 03:36:33;;;;;;;;;;;;;;;17.05;100.00;98792.94;5054838;28;20384;-84
2021/09/15 03:39:01;;;;;;;;;;;;;;;17.15;100.00;98800.91;5054986;28;19931;-84
2021/09/15 03:41:29;;;;;;;;;;;;;;;17.20;100.00;98789.00;5054645;28;19925;-84
2021/09/15 03:43:57;;;;;;;;;;;;;;;17.02;100.00;98796.72;5040852;28;19995;-84
2021/09/15 03:46:24;;;;;;;;;;;;;;;16.90;100.00;98790.00;5037995;28;19931;-84
2021/09/15 03:48:53;;;;;;;;;;;;;;;16.82;100.00;98782.31;5054864;28;20338;-84
2021/09/15 03:51:21;;;;;;;;;;;;;;;17.05;100.00;98790.13;5021857;28;19967;-84
2021/09/15 03:53:48;;;;;;;;;;;;;;;16.73;100.00;98790.78;5054167;28;19924;-84
2021/09/15 03:56:15;;;;;;;;;;;;;;;16.75;100.00;98797.50;5054322;28;20410;-84
2021/09/15 03:58:43;;;;;;;;;;;;;;;16.97;100.00;98781.19;5037826;28;19929;-84
2021/09/15 04:01:14;;;;;;;;;;;;;;;16.70;100.00;98784.06;5037836;28;19951;-84
2021/09/15 04:03:41;;;;;;;;;;;;;;;16.66;100.00;98779.81;5037575;28;19924;-84
2021/09/15 04:06:09;;;;;;;;;;;;;;;16.37;100.00;98779.47;5037694;28;19924;-84
2021/09/15 04:08:36;;;;;;;;;;;;;;;16.84;100.00;98780.56;5021182;28;19924;-84
2021/09/15 04:11:04;;;;;;;;;;;;;;;17.04;100.00;98785.75;5053902;28;19932;-84
2021/09/15 04:13:31;;;;;;;;;;;;;;;17.11;100.00;98780.53;5037432;28;19925;-84
2021/09/15 04:15:58;;;;;;;;;;;;;;;17.27;100.00;98790.69;5037464;28;20288;-84
2021/09/15 04:18:27;;;;;;;;;;;;;;;17.30;100.00;98795.38;5023952;28;20447;-84
2021/09/15 04:20:55;;;;;;;;;;;;;;;17.35;100.00;98792.72;5037895;28;19947;-84
2021/09/15 04:23:30;;;;;;;;;;;;;;;17.36;100.00;98791.44;5053858;28;19947;-84
2021/09/15 04:31:34;;;;;;;;;;;;;;;17.20;100.00;98797.47;5070367;28;19924;-83
2021/09/15 04:34:03;;;;;;;;;;;;;;;17.32;100.00;98776.72;5034175;28;19991;-84
2021/09/15 04:36:44;;;;;;;;;;;;;;;16.77;100.00;98782.94;5033474;28;19939;-83
2021/09/15 04:39:11;;;;;;;;;;;;;;;16.94;100.00;98775.69;5053361;28;20384;-83
2021/09/15 04:41:38;;;;;;;;;;;;;;;17.26;100.00;98777.81;5036981;28;20564;-84
2021/09/15 04:44:06;;;;;;;;;;;;;;;17.21;100.00;98779.25;5053705;28;19972;-84
2021/09/15 04:46:33;;;;;;;;;;;;;;;17.34;100.00;98781.88;5053458;28;20379;-84
2021/09/15 04:49:00;;;;;;;;;;;;;;;17.07;100.00;98776.31;5036679;28;19929;-84
2021/09/15 04:51:29;;;;;;;;;;;;;;;17.27;100.00;98780.19;5053447;28;20023;-84
2021/09/15 04:53:56;;;;;;;;;;;;;;;17.09;100.00;98787.91;5052880;28;19924;-84
2021/09/15 04:56:23;;;;;;;;;;;;;;;16.70;100.00;98789.69;5053224;28;20014;-83
2021/09/15 04:58:51;;;;;;;;;;;;;;;17.11;100.00;98788.22;5036580;28;20415;-83
2021/09/15 05:01:18;;;;;;;;;;;;;;;17.15;100.00;98797.28;5020161;28;20511;-84
2021/09/15 05:03:46;;;;;;;;;;;;;;;17.40;100.00;98794.09;5016657;28;19925;-84
2021/09/15 05:06:14;;;;;;;;;;;;;;;17.49;100.00;98791.28;5050757;28;19925;-84
2021/09/15 05:08:41;;;;;;;;;;;;;;;17.50;100.00;98790.00;5053242;28;19932;-84
2021/09/15 05:11:08;;;;;;;;;;;;;;;17.61;100.00;98787.47;5036337;28;20059;-84
2021/09/15 05:13:35;;;;;;;;;;;;;;;17.46;100.00;98792.22;5053025;28;20391;-84
2021/09/15 05:16:03;;;;;;;;;;;;;;;17.48;100.00;98787.66;5050025;28;19933;-84
2021/09/15 05:18:32;;;;;;;;;;;;;;;17.23;100.00;98787.25;5035619;28;19931;-84
2021/09/15 05:21:00;;;;;;;;;;;;;;;17.02;100.00;98791.84;5052853;28;20015;-84
2021/09/15 05:23:27;;;;;;;;;;;;;;;17.11;100.00;98791.03;5052604;28;20015;-84
2021/09/15 05:26:01;;;;;;;;;;;;;;;17.17;100.00;98803.25;5052759;28;20296;-84
2021/09/15 05:28:28;;;;;;;;;;;;;;;17.06;100.00;98803.75;5036365;28;19932;-84
2021/09/15 05:30:55;;;;;;;;;;;;;;;16.66;100.00;98813.69;5036067;28;19947;-84
2021/09/15 05:33:22;;;;;;;;;;;;;;;16.76;100.00;98812.41;5053036;28;19925;-84
2021/09/15 05:35:49;;;;;;;;;;;;;;;16.21;100.00;98818.00;5019474;28;19924;-84
2021/09/15 05:38:42;;;;;;;;;;;;;;;16.47;100.00;98810.06;5052781;28;19931;-84
2021/09/15 05:41:13;;;;;;;;;;;;;;;16.75;100.00;98816.50;5052607;28;20023;-84
2021/09/15 05:43:41;;;;;;;;;;;;;;;16.84;100.00;98824.94;5036109;28;19955;-84
2021/09/15 05:46:12;;;;;;;;;;;;;;;16.73;100.00;98819.00;5035864;28;19991;-84
2021/09/15 05:48:39;;;;;;;;;;;;;;;16.72;100.00;98823.06;5035974;28;19925;-84
2021/09/15 05:51:06;;;;;;;;;;;;;;;16.65;100.00;98817.72;5052174;28;19960;-84
2021/09/15 05:53:34;;;;;;;;;;;;;;;16.83;100.00;98812.06;5052035;28;19964;-84
2021/09/15 05:56:03;;;;;;;;;;;;;;;16.96;100.00;98810.69;5052380;28;20384;-84
2021/09/15 05:58:31;;;;;;;;;;;;;;;16.89;100.00;98810.22;5052465;28;19925;-84
2021/09/15 06:00:58;;;;;;;;;;;;;;;17.05;100.00;98815.53;5052451;28;20027;-84
2021/09/15 06:03:25;;;;;;;;;;;;;;;16.69;100.00;98807.09;5035739;28;19929;-84
2021/09/15 06:06:01;;;;;;;;;;;;;;;16.22;100.00;98825.19;5017120;28;20023;-84
2021/09/15 06:08:29;;;;;;;;;;;;;;;16.89;100.00;98829.97;5050867;28;19975;-85
2021/09/15 06:10:56;;;;;;;;;;;;;;;16.82;100.00;98833.88;5052407;28;19925;-85
2021/09/15 06:13:23;;;;;;;;;;;;;;;16.75;100.00;98833.41;5052245;28;19929;-83
2021/09/15 06:15:51;;;;;;;;;;;;;;;17.10;100.00;98831.81;5052212;28;19932;-83
2021/09/15 06:18:19;;;;;;;;;;;;;;;17.03;100.00;98838.56;5035836;28;19925;-84
2021/09/15 06:21:15;;;;;;;;;;;;;;;17.28;100.00;98840.25;5035597;28;20027;-84
2021/09/15 06:24:00;;;;;;;;;;;;;;;17.32;100.00;98838.03;5038434;28;19952;-83
2021/09/15 06:26:28;;;;;;;;;;;;;;;17.43;100.00;98844.00;5052602;28;20372;-83
2021/09/15 06:28:55;;;;;;;;;;;;;;;17.53;100.00;98849.16;5035844;28;19932;-83
2021/09/15 06:31:22;;;;;;;;;;;;;;;17.38;100.00;98841.78;5035748;28;20292;-83
2021/09/15 06:33:52;;;;;;;;;;;;;;;17.56;100.00;98853.88;5053276;28;19925;-83
2021/09/15 06:36:19;;;;;;;;;;;;;;;17.70;100.00;98844.72;5052962;28;19925;-82
2021/09/15 06:38:46;;;;;;;;;;;;;;;17.69;100.00;98843.13;5064718;28;19924;-83
2021/09/15 06:41:38;;;;;;;;;;;;;;;17.38;100.00;98848.25;5028493;28;19929;-83
2021/09/15 06:44:09;;;;;;;;;;;;;;;16.51;100.00;98858.63;5047475;28;19925;-83
2021/09/15 06:46:36;;;;;;;;;;;;;;;17.23;100.00;98864.28;5060843;28;19925;-83
2021/09/15 06:49:03;;;;;;;;;;;;;;;17.33;100.00;98856.53;5052480;28;19991;-83
2021/09/15 06:51:30;;;;;;;;;;;;;;;17.56;100.00;98870.03;5053586;28;19925;-83
2021/09/15 06:53:59;;;;;;;;;;;;;;;17.39;100.00;98860.28;5072784;28;20007;-83
2021/09/15 06:56:28;;;;;;;;;;;;;;;17.62;100.00;98863.25;5071775;28;19964;-83
2021/09/15 06:58:57;;;;;;;;;;;;;;;17.69;100.00;98862.91;5068160;28;19931;-83
2021/09/15 07:01:25;;;;;;;;;;;;;;;17.87;100.00;98874.16;5091254;28;19928;-83
2021/09/15 07:03:52;;;;;;;;;;;;;;;17.95;100.00;98875.38;5087312;28;19924;-83
2021/09/15 07:06:19;;;;;;;;;;;;;;;18.02;100.00;98867.81;5076224;28;20380;-80
2021/09/15 07:08:48;;;;;;;;;;;;;;;18.13;100.00;98863.19;5058769;28;19970;-81
2021/09/15 07:11:16;;;;;;;;;;;;;;;18.19;100.00;98869.75;5046463;28;20015;-80
2021/09/15 07:13:43;;;;;;;;;;;;;;;18.29;100.00;98871.28;5066904;28;19929;-81
2021/09/15 07:16:10;;;;;;;;;;;;;;;18.51;100.00;98877.44;5063565;28;19931;-80
2021/09/15 07:18:37;;;;;;;;;;;;;;;18.33;100.00;98868.25;5056275;28;19931;-81
2021/09/15 07:21:05;;;;;;;;;;;;;;;17.84;100.00;98885.63;5066310;28;20464;-81
2021/09/15 07:23:32;;;;;;;;;;;;;;;18.19;100.00;98883.88;5068172;28;19924;-81
2021/09/15 07:25:59;;;;;;;;;;;;;;;18.58;100.00;98888.44;5066988;28;19978;-80
2021/09/15 07:28:26;;;;;;;;;;;;;;;18.71;100.00;98897.44;5038360;28;20360;-80
2021/09/15 07:30:53;;;;;;;;;;;;;;;18.69;100.00;98904.88;5055780;28;19933;-80
2021/09/15 07:33:20;;;;;;;;;;;;;;;18.99;100.00;98901.63;5053783;28;20323;-80
2021/09/15 07:35:47;;;;;;;;;;;;;;;18.47;100.00;98902.31;5049680;28;19959;-80
2021/09/15 07:38:16;;;;;;;;;;;;;;;17.67;100.00;98898.56;5054627;28;20007;-80
2021/09/15 07:40:43;;;;;;;;;;;;;;;18.17;100.00;98909.06;5055479;28;20002;-80
2021/09/15 07:43:10;;;;;;;;;;;;;;;18.55;100.00;98905.56;5037671;28;19932;-80
2021/09/15 07:45:38;;;;;;;;;;;;;;;18.47;100.00;98913.63;5055231;28;20245;-80
2021/09/15 07:48:06;;;;;;;;;;;;;;;19.05;100.00;98908.19;5037728;28;19929;-80
2021/09/15 07:50:33;;;;;;;;;;;;;;;18.89;100.00;98905.81;5087584;28;19932;-80
2021/09/15 07:53:00;;;;;;;;;;;;;;;18.27;100.00;98902.09;5054759;28;19947;-80
2021/09/15 07:55:27;;;;;;;;;;;;;;;18.91;100.00;98911.78;5055201;28;19925;-80
2021/09/15 07:57:54;;;;;;;;;;;;;;;19.51;100.00;98908.59;5054125;28;19925;-80
2021/09/15 08:00:21;;;;;;;;;;;;;;;20.37;100.00;98906.19;5055505;28;19925;-82
2021/09/15 08:02:49;;;;;;;;;;;;;;;20.28;100.00;98894.97;5055297;28;19925;-84
2021/09/15 08:05:16;;;;;;;;;;;;;;;21.05;100.00;98893.97;5019696;28;19932;-85
2021/09/15 08:07:43;;;;;;;;;;;;;;;21.13;100.00;98883.75;5053955;28;19924;-81
2021/09/15 08:10:11;;;;;;;;;;;;;;;21.91;100.00;98884.53;5055285;28;20366;-81
2021/09/15 08:12:38;;;;;;;;;;;;;;;22.68;100.00;98870.88;5053824;28;19925;-80
2021/09/15 08:15:05;;;;;;;;;;;;;;;22.40;100.00;98873.50;5087062;28;20311;-80
2021/09/15 08:17:32;;;;;;;;;;;;;;;22.28;100.00;98873.97;5053445;28;19988;-80
2021/09/15 08:19:59;;;;;;;;;;;;;;;21.95;100.00;98876.53;5053818;28;19987;-80
2021/09/15 08:22:29;;;;;;;;;;;;;;;21.42;100.00;98879.16;5054986;28;19964;-84
2021/09/15 08:24:56;;;;;;;;;;;;;;;21.01;100.00;98887.72;5053061;28;19947;-78
2021/09/15 08:27:23;;;;;;;;;;;;;;;20.50;100.00;98886.75;5054421;28;19959;-79
2021/09/15 08:29:50;;;;;;;;;;;;;;;20.52;100.00;98890.66;5054500;28;20265;-78
2021/09/15 08:32:17;;;;;;;;;;;;;;;19.89;100.00;98893.53;5053084;28;19971;-77
2021/09/15 08:34:44;;;;;;;;;;;;;;;19.30;100.00;98899.19;5053311;28;19960;-78
2021/09/15 08:37:11;;;;;;;;;;;;;;;19.32;100.00;98901.53;5053804;28;19931;-82
2021/09/15 08:39:39;;;;;;;;;;;;;;;19.33;100.00;98898.22;5053778;28;19947;-82
2021/09/15 08:42:06;;;;;;;;;;;;;;;19.10;100.00;98901.84;5053316;28;20283;-78
2021/09/15 08:44:33;;;;;;;;;;;;;;;18.92;100.00;98890.69;5050422;28;19932;-78
2021/09/15 08:47:01;;;;;;;;;;;;;;;18.73;100.00;98894.94;5054191;28;20368;-80
2021/09/15 08:49:30;;;;;;;;;;;;;;;19.33;100.00;98898.22;5085987;28;19949;-80
2021/09/15 08:51:57;;;;;;;;;;;;;;;19.62;100.00;98888.94;5053243;28;20379;-80
2021/09/15 08:54:25;;;;;;;;;;;;;;;19.05;100.00;98902.50;5054382;28;19940;-77
2021/09/15 08:56:52;;;;;;;;;;;;;;;19.08;100.00;98910.06;5054397;28;19932;-79
2021/09/15 08:59:20;;;;;;;;;;;;;;;18.75;100.00;98909.34;5086636;28;20392;-85
2021/09/15 09:01:48;;;;;;;;;;;;;;;18.90;100.00;98912.25;5036617;28;20450;-83
2021/09/15 09:04:16;;;;;;;;;;;;;;;19.23;100.00;98902.38;5086915;28;20796;-85
2021/09/15 09:06:47;;;;;;;;;;;;;;;19.63;100.00;98913.19;5054237;28;19949;-79
2021/09/15 09:09:14;;;;;;;;;;;;;;;19.95;100.00;98905.75;5086453;28;19940;-79
2021/09/15 09:11:44;;;;;;;;;;;;;;;20.20;100.00;98919.34;5054010;28;20384;-84
2021/09/15 09:14:12;;;;;;;;;;;;;;;20.36;100.00;98922.44;5052742;28;20376;-81
2021/09/15 09:16:44;;;;;;;;;;;;;;;20.53;100.00;98919.84;5027946;28;19952;-80
2021/09/15 09:19:16;;;;;;;;;;;;;;;20.32;100.00;98926.75;5052798;28;19936;-81
2021/09/15 09:21:50;;;;;;;;;;;;;;;20.64;100.00;98908.66;5053876;28;19926;-85
2021/09/15 09:24:24;;;;;;;;;;;;;;;21.04;100.00;98917.19;5036436;28;19924;-81
2021/09/15 09:26:53;;;;;;;;;;;;;;;21.32;100.00;98912.63;5053473;28;20392;-86
2021/09/15 09:29:35;;;;;;;;;;;;;;;21.06;100.00;98911.81;5052968;28;19932;-86
2021/09/15 09:32:03;;;;;;;;;;;;;;;21.27;100.00;98899.91;5086125;28;19925;-85
2021/09/15 09:34:38;;;;;;;;;;;;;;;21.37;100.00;98909.09;5053764;28;20411;-84
2021/09/15 09:37:16;;;;;;;;;;;;;;;21.50;100.00;98909.47;5052773;28;19935;-84
2021/09/15 09:39:48;;;;;;;;;;;;;;;21.20;100.00;98908.88;5069348;28;19925;-85
2021/09/15 09:42:24;;;;;;;;;;;;;;;21.65;100.00;98898.75;5052967;28;19933;-84
2021/09/15 09:45:04;;;;;;;;;;;;;;;21.77;100.00;98885.44;5053452;28;20529;-83
2021/09/15 09:47:31;;;;;;;;;;;;;;;21.16;100.00;98893.31;5085978;28;19924;-83
2021/09/15 09:49:58;;;;;;;;;;;;;;;21.48;100.00;98899.88;5052634;28;19925;-82
2021/09/15 09:52:26;;;;;;;;;;;;;;;21.38;100.00;98905.75;5069106;28;19948;-82
2021/09/15 09:54:58;;;;;;;;;;;;;;;21.35;100.00;98900.25;5053962;28;19963;-81
2021/09/15 09:57:28;;;;;;;;;;;;;;;21.40;100.00;98891.78;5053014;28;19971;-80
2021/09/15 09:59:56;;;;;;;;;;;;;;;20.48;100.00;98892.16;5052980;28;19929;-79
2021/09/15 10:02:23;;;;;;;;;;;;;;;21.37;100.00;98892.03;5053136;28;19978;-79
2021/09/15 10:04:50;;;;;;;;;;;;;;;21.87;100.00;98892.53;5035462;28;20019;-80
2021/09/15 10:07:17;;;;;;;;;;;;;;;21.87;100.00;98890.44;5053282;28;19925;-80
2021/09/15 10:09:45;;;;;;;;;;;;;;;22.49;100.00;98883.94;5053382;28;19931;-82
2021/09/15 10:12:12;;;;;;;;;;;;;;;22.20;100.00;98873.66;5053203;28;19925;-80
2021/09/15 10:14:40;;;;;;;;;;;;;;;22.45;100.00;98874.84;5051865;28;19928;-80
2021/09/15 10:17:11;;;;;;;;;;;;;;;22.46;100.00;98880.03;5052995;28;19929;-80
2021/09/15 10:19:46;;;;;;;;;;;;;;;22.79;100.00;98883.09;5085393;28;20265;-80
2021/09/15 10:22:13;;;;;;;;;;;;;;;22.17;100.00;98891.75;5051567;28;19925;-79
2021/09/15 10:24:49;;;;;;;;;;;;;;;21.81;100.00;98903.09;5053231;28;19925;-80
2021/09/15 10:27:20;;;;;;;;;;;;;;;21.60;100.00;98882.41;5053085;28;20015;-80
2021/09/15 10:30:06;;;;;;;;;;;;;;;21.33;100.00;98899.97;5053106;28;19924;-80
2021/09/15 10:32:34;;;;;;;;;;;;;;;21.17;100.00;98889.97;5051929;28;19967;-80
2021/09/15 10:35:05;;;;;;;;;;;;;;;20.78;100.00;98897.22;5053382;28;19925;-80
2021/09/15 10:37:32;;;;;;;;;;;;;;;21.09;100.00;98893.75;5072576;28;20287;-80
2021/09/15 10:40:02;;;;;;;;;;;;;;;21.47;100.00;98884.88;5055853;28;19931;-80
2021/09/15 10:42:39;;;;;;;;;;;;;;;21.72;100.00;98883.31;5059975;28;19925;-80
2021/09/15 10:45:10;;;;;;;;;;;;;;;21.81;100.00;98880.31;5061851;28;19929;-81
2021/09/15 10:47:38;;;;;;;;;;;;;;;21.58;100.00;98873.63;5072813;28;19925;-79
2021/09/15 10:50:06;;;;;;;;;;;;;;;21.51;100.00;98871.22;5089073;28;19970;-80
2021/09/15 10:52:40;;;;;;;;;;;;;;;21.58;100.00;98873.63;5055902;28;20292;-79
2021/09/15 10:55:18;;;;;;;;;;;;;;;21.63;100.00;98881.41;5074354;28;19983;-80
2021/09/15 10:57:47;;;;;;;;;;;;;;;21.41;100.00;98869.84;5056484;28;19928;-80
2021/09/15 11:00:17;;;;;;;;;;;;;;;21.45;100.00;98864.69;5072027;28;19924;-80
2021/09/15 11:02:48;;;;;;;;;;;;;;;21.70;100.00;98863.91;5076694;28;20303;-80
2021/09/15 11:05:27;;;;;;;;;;;;;;;20.93;100.00;98877.28;5073490;28;19975;-80
2021/09/15 11:07:54;;;;;;;;;;;;;;;21.45;100.00;98881.75;5066312;28;19924;-79
2021/09/15 11:10:33;;;;;;;;;;;;;;;21.99;100.00;98869.34;5058132;28;20367;-79
2021/09/15 11:13:02;;;;;;;;;;;;;;;21.81;100.00;98874.63;5075926;28;19925;-79
2021/09/15 11:15:33;;;;;;;;;;;;;;;21.54;100.00;98875.91;5074450;28;19924;-78
2021/09/15 11:18:00;;;;;;;;;;;;;;;21.40;100.00;98880.41;5091538;28;19929;-78
2021/09/15 11:20:29;;;;;;;;;;;;;;;21.62;100.00;98879.88;5075408;28;19928;-78
2021/09/15 11:23:01;;;;;;;;;;;;;;;21.80;100.00;98885.22;5061562;28;19929;-78
2021/09/15 11:25:27;;;;;;;;;;;;;;;22.27;100.00;98884.56;5044019;28;19924;-79
2021/09/15 11:28:03;;;;;;;;;;;;;;;22.08;100.00;98877.72;5047535;28;20291;-79
2021/09/15 11:30:31;;;;;;;;;;;;;;;22.37;100.00;98883.06;5076035;28;19925;-78
2021/09/15 11:32:58;;;;;;;;;;;;;;;21.88;100.00;98885.56;5075384;28;19925;-79
2021/09/15 11:35:25;;;;;;;;;;;;;;;21.99;100.00;98872.19;5075830;28;19943;-79
2021/09/15 11:40:03;;;;;;;;;;;;;;;21.64;100.00;98883.00;5073841;27;2009194;-79
2021/09/15 11:42:32;;;;;;;;;;;;;;;21.88;100.00;98892.03;5131086;28;20398;-78
2021/09/15 11:45:18;;;;;;;;;;;;;;;21.40;100.00;98896.72;5131627;28;19965;-78
2021/09/15 11:47:46;;;;;;;;;;;;;;;21.51;100.00;98902.50;5131607;28;20421;-78
2021/09/15 11:50:18;;;;;;;;;;;;;;;20.94;100.00;98895.88;5130894;28;19955;-79
2021/09/15 11:52:50;;;;;;;;;;;;;;;20.68;100.00;98900.69;5130762;28;19931;-79
2021/09/15 11:55:17;;;;;;;;;;;;;;;20.74;100.00;98898.69;5113743;28;19928;-78
2021/09/15 11:57:48;;;;;;;;;;;;;;;20.79;100.00;98903.69;5111928;28;19923;-79
2021/09/15 12:00:16;;;;;;;;;;;;;;;21.37;100.00;98904.16;5112419;28;19923;-80
2021/09/15 12:02:47;;;;;;;;;;;;;;;21.63;100.00;98898.47;5113283;28;20401;-80
2021/09/15 12:05:15;;;;;;;;;;;;;;;21.95;100.00;98893.63;5108489;28;20022;-80
2021/09/15 12:07:43;;;;;;;;;;;;;;;22.03;100.00;98886.97;5123073;28;19924;-80
2021/09/15 12:10:11;;;;;;;;;;;;;;;21.85;100.00;98893.03;5115721;28;20049;-80
2021/09/15 12:12:39;;;;;;;;;;;;;;;21.90;100.00;98895.13;5075733;28;19931;-80
2021/09/15 12:15:08;;;;;;;;;;;;;;;21.78;100.00;98902.00;5098764;28;19973;-82
2021/09/15 12:17:35;;;;;;;;;;;;;;;21.80;100.00;98895.81;5100429;28;19924;-81
2021/09/15 12:20:05;;;;;;;;;;;;;;;21.72;100.00;98903.22;5090582;28;19924;-80
2021/09/15 12:22:32;;;;;;;;;;;;;;;21.92;100.00;98903.94;5131525;28;19947;-80
2021/09/15 12:25:12;;;;;;;;;;;;;;;21.67;100.00;98898.25;5113019;28;19924;-81
2021/09/15 12:27:41;;;;;;;;;;;;;;;21.79;100.00;98895.06;5112947;28;19923;-80
2021/09/15 12:30:11;;;;;;;;;;;;;;;21.54;100.00;98900.72;5092826;28;20023;-80
2021/09/15 12:32:39;;;;;;;;;;;;;;;21.45;100.00;98898.81;5109720;28;19931;-80
2021/09/15 12:35:07;;;;;;;;;;;;;;;21.35;100.00;98900.25;5100222;28;19924;-80
2021/09/15 12:37:38;;;;;;;;;;;;;;;21.19;100.00;98898.00;5123612;28;19966;-80
2021/09/15 12:40:07;;;;;;;;;;;;;;;21.80;100.00;98893.75;5094718;28;19930;-78
2021/09/15 12:42:35;;;;;;;;;;;;;;;21.68;100.00;98883.53;5094506;28;19923;-79
2021/09/15 12:45:06;;;;;;;;;;;;;;;21.81;100.00;98880.31;5129330;28;19959;-75
2021/09/15 12:47:39;;;;;;;;;;;;;;;21.46;100.00;98889.03;5130130;28;20287;-75
2021/09/15 12:50:20;;;;;;;;;;;;;;;20.74;100.00;98888.13;5105672;28;19924;-77
2021/09/15 12:53:08;;;;;;;;;;;;;;;20.59;100.00;98893.09;5115363;28;19930;-76
2021/09/15 12:56:01;;;;;;;;;;;;;;;21.07;100.00;98893.47;5094481;28;20005;-76
2021/09/15 12:58:37;;;;;;;;;;;;;;;21.34;100.00;98893.78;5098273;28;19993;-76
2021/09/15 13:01:05;;;;;;;;;;;;;;;21.10;100.00;98895.31;5098512;28;19976;-76
2021/09/15 13:03:38;;;;;;;;;;;;;;;21.02;100.00;98902.72;5116590;28;20317;-77